sensor_id;sensor_type;location;lat;lon;timestamp;P1;durP1;ratioP1;P2;durP2;ratioP2
41693;SDS011;27377;50.666;9.150;2022-07-23T00:02:37;9.20;;;5.55;;
41693;SDS011;27377;50.666;9.150;2022-07-23T00:05:21;10.25;;;5.45;;
41693;SDS011;27377;50.666;9.150;2022-07-23T00:08:06;8.85;;;5.75;;
41693;SDS011;27377;50.666;9.150;2022-07-23T00:10:50;8.68;;;5.90;;
41693;SDS011;27377;50.666;9.150;2022-07-23T00:13:34;9.68;;;6.10;;
41693;SDS011;27377;50.666;9.150;2022-07-23T00:16:19;10.60;;;6.60;;
41693;SDS011;27377;50.666;9.150;2022-07-23T00:19:03;9.40;;;6.07;;
41693;SDS011;27377;50.666;9.150;2022-07-23T00:21:47;9.93;;;5.90;;
41693;SDS011;27377;50.666;9.150;2022-07-23T00:24:31;9.50;;;6.37;;
41693;SDS011;27377;50.666;9.150;2022-07-23T00:27:15;9.63;;;6.40;;
41693;SDS011;27377;50.666;9.150;2022-07-23T00:30:00;14.07;;;6.80;;
41693;SDS011;27377;50.666;9.150;2022-07-23T00:32:45;11.55;;;6.50;;
41693;SDS011;27377;50.666;9.150;2022-07-23T00:35:31;10.07;;;6.95;;
41693;SDS011;27377;50.666;9.150;2022-07-23T00:38:18;9.88;;;6.90;;
41693;SDS011;27377;50.666;9.150;2022-07-23T00:41:02;10.02;;;6.85;;
41693;SDS011;27377;50.666;9.150;2022-07-23T00:43:46;10.82;;;6.53;;
41693;SDS011;27377;50.666;9.150;2022-07-23T00:46:30;12.25;;;6.95;;
41693;SDS011;27377;50.666;9.150;2022-07-23T00:49:14;10.75;;;7.07;;
41693;SDS011;27377;50.666;9.150;2022-07-23T00:52:00;9.32;;;6.35;;
41693;SDS011;27377;50.666;9.150;2022-07-23T00:54:45;9.98;;;6.88;;
41693;SDS011;27377;50.666;9.150;2022-07-23T00:57:30;9.98;;;7.38;;
41693;SDS011;27377;50.666;9.150;2022-07-23T01:00:15;10.63;;;6.70;;
41693;SDS011;27377;50.666;9.150;2022-07-23T01:02:59;10.38;;;7.00;;
41693;SDS011;27377;50.666;9.150;2022-07-23T01:05:43;12.63;;;7.70;;
41693;SDS011;27377;50.666;9.150;2022-07-23T01:08:28;11.07;;;7.22;;
41693;SDS011;27377;50.666;9.150;2022-07-23T01:11:13;10.50;;;6.88;;
41693;SDS011;27377;50.666;9.150;2022-07-23T01:13:57;9.45;;;6.95;;
41693;SDS011;27377;50.666;9.150;2022-07-23T01:16:42;9.63;;;6.97;;
41693;SDS011;27377;50.666;9.150;2022-07-23T01:19:27;10.93;;;7.00;;
41693;SDS011;27377;50.666;9.150;2022-07-23T01:22:11;11.20;;;7.45;;
41693;SDS011;27377;50.666;9.150;2022-07-23T01:24:56;10.27;;;7.03;;
41693;SDS011;27377;50.666;9.150;2022-07-23T01:27:40;11.68;;;7.22;;
41693;SDS011;27377;50.666;9.150;2022-07-23T01:30:24;10.35;;;7.03;;
41693;SDS011;27377;50.666;9.150;2022-07-23T01:33:08;9.77;;;7.03;;
41693;SDS011;27377;50.666;9.150;2022-07-23T01:35:52;10.15;;;7.00;;
41693;SDS011;27377;50.666;9.150;2022-07-23T01:38:36;11.25;;;7.78;;
41693;SDS011;27377;50.666;9.150;2022-07-23T01:41:21;11.65;;;7.88;;
41693;SDS011;27377;50.666;9.150;2022-07-23T01:44:05;10.32;;;7.60;;
41693;SDS011;27377;50.666;9.150;2022-07-23T01:46:49;11.07;;;7.97;;
41693;SDS011;27377;50.666;9.150;2022-07-23T01:49:33;11.02;;;7.88;;
41693;SDS011;27377;50.666;9.150;2022-07-23T01:52:17;11.35;;;7.80;;
41693;SDS011;27377;50.666;9.150;2022-07-23T01:55:01;11.05;;;8.27;;
41693;SDS011;27377;50.666;9.150;2022-07-23T01:57:46;12.95;;;8.85;;
41693;SDS011;27377;50.666;9.150;2022-07-23T02:00:30;13.23;;;8.32;;
41693;SDS011;27377;50.666;9.150;2022-07-23T02:03:15;12.20;;;8.50;;
41693;SDS011;27377;50.666;9.150;2022-07-23T02:05:59;13.48;;;8.80;;
41693;SDS011;27377;50.666;9.150;2022-07-23T02:08:43;13.02;;;9.40;;
41693;SDS011;27377;50.666;9.150;2022-07-23T02:11:27;13.60;;;9.30;;
41693;SDS011;27377;50.666;9.150;2022-07-23T02:14:11;14.18;;;10.05;;
41693;SDS011;27377;50.666;9.150;2022-07-23T02:16:55;16.88;;;11.13;;
41693;SDS011;27377;50.666;9.150;2022-07-23T02:19:39;19.57;;;11.20;;
41693;SDS011;27377;50.666;9.150;2022-07-23T02:22:23;15.77;;;10.77;;
41693;SDS011;27377;50.666;9.150;2022-07-23T02:25:07;16.15;;;10.73;;
41693;SDS011;27377;50.666;9.150;2022-07-23T02:27:52;15.10;;;10.30;;
41693;SDS011;27377;50.666;9.150;2022-07-23T02:30:36;18.63;;;11.20;;
41693;SDS011;27377;50.666;9.150;2022-07-23T02:33:21;19.08;;;11.70;;
41693;SDS011;27377;50.666;9.150;2022-07-23T02:36:05;16.38;;;11.57;;
41693;SDS011;27377;50.666;9.150;2022-07-23T02:38:50;16.98;;;12.05;;
41693;SDS011;27377;50.666;9.150;2022-07-23T02:41:34;15.57;;;11.13;;
41693;SDS011;27377;50.666;9.150;2022-07-23T02:44:18;15.40;;;11.10;;
41693;SDS011;27377;50.666;9.150;2022-07-23T02:47:02;15.13;;;10.98;;
41693;SDS011;27377;50.666;9.150;2022-07-23T02:49:47;15.73;;;11.32;;
41693;SDS011;27377;50.666;9.150;2022-07-23T02:52:31;14.98;;;11.15;;
41693;SDS011;27377;50.666;9.150;2022-07-23T02:55:15;15.40;;;11.15;;
41693;SDS011;27377;50.666;9.150;2022-07-23T02:57:59;16.95;;;11.63;;
41693;SDS011;27377;50.666;9.150;2022-07-23T03:00:43;15.45;;;11.68;;
41693;SDS011;27377;50.666;9.150;2022-07-23T03:03:27;16.10;;;12.15;;
41693;SDS011;27377;50.666;9.150;2022-07-23T03:06:11;18.58;;;12.60;;
41693;SDS011;27377;50.666;9.150;2022-07-23T03:08:55;17.10;;;12.13;;
41693;SDS011;27377;50.666;9.150;2022-07-23T03:11:39;15.63;;;11.20;;
41693;SDS011;27377;50.666;9.150;2022-07-23T03:14:23;14.57;;;10.70;;
41693;SDS011;27377;50.666;9.150;2022-07-23T03:17:08;15.30;;;10.93;;
41693;SDS011;27377;50.666;9.150;2022-07-23T03:19:52;15.35;;;11.52;;
41693;SDS011;27377;50.666;9.150;2022-07-23T03:22:36;16.90;;;11.80;;
41693;SDS011;27377;50.666;9.150;2022-07-23T03:25:20;15.30;;;11.20;;
41693;SDS011;27377;50.666;9.150;2022-07-23T03:28:05;15.93;;;11.25;;
41693;SDS011;27377;50.666;9.150;2022-07-23T03:30:49;15.77;;;11.73;;
41693;SDS011;27377;50.666;9.150;2022-07-23T03:33:33;17.92;;;11.77;;
41693;SDS011;27377;50.666;9.150;2022-07-23T03:36:17;17.27;;;11.93;;
41693;SDS011;27377;50.666;9.150;2022-07-23T03:39:01;17.08;;;12.00;;
41693;SDS011;27377;50.666;9.150;2022-07-23T03:41:47;16.80;;;12.10;;
41693;SDS011;27377;50.666;9.150;2022-07-23T03:44:31;16.15;;;12.15;;
41693;SDS011;27377;50.666;9.150;2022-07-23T03:47:15;15.32;;;11.88;;
41693;SDS011;27377;50.666;9.150;2022-07-23T03:50:01;15.52;;;12.02;;
41693;SDS011;27377;50.666;9.150;2022-07-23T03:52:44;17.45;;;12.27;;
41693;SDS011;27377;50.666;9.150;2022-07-23T03:55:29;16.75;;;12.00;;
41693;SDS011;27377;50.666;9.150;2022-07-23T03:58:13;16.25;;;11.80;;
41693;SDS011;27377;50.666;9.150;2022-07-23T04:00:57;17.88;;;11.98;;
41693;SDS011;27377;50.666;9.150;2022-07-23T04:03:41;15.45;;;11.73;;
41693;SDS011;27377;50.666;9.150;2022-07-23T04:06:29;17.05;;;11.82;;
41693;SDS011;27377;50.666;9.150;2022-07-23T04:09:17;16.60;;;11.60;;
41693;SDS011;27377;50.666;9.150;2022-07-23T04:12:01;15.25;;;11.55;;
41693;SDS011;27377;50.666;9.150;2022-07-23T04:14:54;17.20;;;11.83;;
41693;SDS011;27377;50.666;9.150;2022-07-23T04:17:38;16.15;;;12.18;;
41693;SDS011;27377;50.666;9.150;2022-07-23T04:20:22;16.98;;;12.48;;
41693;SDS011;27377;50.666;9.150;2022-07-23T04:23:07;17.17;;;12.13;;
41693;SDS011;27377;50.666;9.150;2022-07-23T04:25:52;17.25;;;11.80;;
41693;SDS011;27377;50.666;9.150;2022-07-23T04:28:37;16.55;;;11.88;;
41693;SDS011;27377;50.666;9.150;2022-07-23T04:31:22;18.42;;;12.75;;
41693;SDS011;27377;50.666;9.150;2022-07-23T04:34:09;17.87;;;12.77;;
41693;SDS011;27377;50.666;9.150;2022-07-23T04:36:53;18.02;;;11.93;;
41693;SDS011;27377;50.666;9.150;2022-07-23T04:39:37;16.80;;;11.95;;
41693;SDS011;27377;50.666;9.150;2022-07-23T04:42:22;16.83;;;11.80;;
41693;SDS011;27377;50.666;9.150;2022-07-23T04:45:06;16.42;;;11.70;;
41693;SDS011;27377;50.666;9.150;2022-07-23T04:47:50;18.35;;;12.90;;
41693;SDS011;27377;50.666;9.150;2022-07-23T04:50:35;16.83;;;12.40;;
41693;SDS011;27377;50.666;9.150;2022-07-23T04:53:19;15.90;;;11.67;;
41693;SDS011;27377;50.666;9.150;2022-07-23T04:56:03;17.92;;;12.32;;
41693;SDS011;27377;50.666;9.150;2022-07-23T04:58:48;18.88;;;12.27;;
41693;SDS011;27377;50.666;9.150;2022-07-23T05:01:32;17.23;;;12.35;;
41693;SDS011;27377;50.666;9.150;2022-07-23T05:04:16;17.73;;;12.50;;
41693;SDS011;27377;50.666;9.150;2022-07-23T05:07:00;17.17;;;11.70;;
41693;SDS011;27377;50.666;9.150;2022-07-23T05:09:44;18.15;;;12.32;;
41693;SDS011;27377;50.666;9.150;2022-07-23T05:12:29;18.27;;;12.48;;
41693;SDS011;27377;50.666;9.150;2022-07-23T05:15:13;19.25;;;12.65;;
41693;SDS011;27377;50.666;9.150;2022-07-23T05:17:57;17.95;;;12.52;;
41693;SDS011;27377;50.666;9.150;2022-07-23T05:20:41;17.30;;;12.30;;
41693;SDS011;27377;50.666;9.150;2022-07-23T05:23:26;20.92;;;12.63;;
41693;SDS011;27377;50.666;9.150;2022-07-23T05:26:10;17.80;;;12.30;;
41693;SDS011;27377;50.666;9.150;2022-07-23T05:29:03;19.65;;;12.48;;
41693;SDS011;27377;50.666;9.150;2022-07-23T05:31:47;20.00;;;12.73;;
41693;SDS011;27377;50.666;9.150;2022-07-23T05:34:31;19.75;;;12.70;;
41693;SDS011;27377;50.666;9.150;2022-07-23T05:37:15;18.40;;;12.60;;
41693;SDS011;27377;50.666;9.150;2022-07-23T05:40:03;17.63;;;11.95;;
41693;SDS011;27377;50.666;9.150;2022-07-23T05:42:50;19.40;;;12.63;;
41693;SDS011;27377;50.666;9.150;2022-07-23T05:45:35;19.53;;;12.50;;
41693;SDS011;27377;50.666;9.150;2022-07-23T05:48:19;18.77;;;12.32;;
41693;SDS011;27377;50.666;9.150;2022-07-23T05:51:03;17.92;;;12.02;;
41693;SDS011;27377;50.666;9.150;2022-07-23T05:53:50;18.53;;;11.93;;
41693;SDS011;27377;50.666;9.150;2022-07-23T05:56:35;21.27;;;11.80;;
41693;SDS011;27377;50.666;9.150;2022-07-23T05:59:20;17.48;;;12.15;;
41693;SDS011;27377;50.666;9.150;2022-07-23T06:02:04;17.75;;;11.45;;
41693;SDS011;27377;50.666;9.150;2022-07-23T06:04:48;19.33;;;11.60;;
41693;SDS011;27377;50.666;9.150;2022-07-23T06:07:32;15.38;;;10.70;;
41693;SDS011;27377;50.666;9.150;2022-07-23T06:10:16;17.73;;;11.18;;
41693;SDS011;27377;50.666;9.150;2022-07-23T06:13:00;14.93;;;10.63;;
41693;SDS011;27377;50.666;9.150;2022-07-23T06:15:44;16.25;;;10.60;;
41693;SDS011;27377;50.666;9.150;2022-07-23T06:18:28;15.88;;;10.57;;
41693;SDS011;27377;50.666;9.150;2022-07-23T06:21:12;15.03;;;10.23;;
41693;SDS011;27377;50.666;9.150;2022-07-23T06:23:56;15.40;;;10.15;;
41693;SDS011;27377;50.666;9.150;2022-07-23T06:26:40;15.52;;;10.30;;
41693;SDS011;27377;50.666;9.150;2022-07-23T06:29:24;14.68;;;9.63;;
41693;SDS011;27377;50.666;9.150;2022-07-23T06:32:08;15.15;;;10.02;;
41693;SDS011;27377;50.666;9.150;2022-07-23T06:34:52;17.77;;;9.60;;
41693;SDS011;27377;50.666;9.150;2022-07-23T06:37:36;13.52;;;9.07;;
41693;SDS011;27377;50.666;9.150;2022-07-23T06:40:20;14.07;;;9.20;;
41693;SDS011;27377;50.666;9.150;2022-07-23T06:43:04;13.43;;;9.05;;
41693;SDS011;27377;50.666;9.150;2022-07-23T06:45:48;13.55;;;8.93;;
41693;SDS011;27377;50.666;9.150;2022-07-23T06:48:33;14.70;;;8.70;;
41693;SDS011;27377;50.666;9.150;2022-07-23T06:51:19;13.65;;;8.63;;
41693;SDS011;27377;50.666;9.150;2022-07-23T06:54:12;13.80;;;8.95;;
41693;SDS011;27377;50.666;9.150;2022-07-23T06:56:59;14.43;;;9.15;;
41693;SDS011;27377;50.666;9.150;2022-07-23T06:59:43;11.68;;;8.27;;
41693;SDS011;27377;50.666;9.150;2022-07-23T07:02:28;14.00;;;8.20;;
41693;SDS011;27377;50.666;9.150;2022-07-23T07:05:11;12.85;;;8.50;;
41693;SDS011;27377;50.666;9.150;2022-07-23T07:07:56;13.40;;;8.18;;
41693;SDS011;27377;50.666;9.150;2022-07-23T07:10:40;13.25;;;8.55;;
41693;SDS011;27377;50.666;9.150;2022-07-23T07:13:24;12.55;;;8.20;;
41693;SDS011;27377;50.666;9.150;2022-07-23T07:16:08;12.40;;;8.05;;
41693;SDS011;27377;50.666;9.150;2022-07-23T07:18:53;11.07;;;7.50;;
41693;SDS011;27377;50.666;9.150;2022-07-23T07:21:37;12.37;;;7.53;;
41693;SDS011;27377;50.666;9.150;2022-07-23T07:24:21;11.98;;;7.50;;
41693;SDS011;27377;50.666;9.150;2022-07-23T07:27:05;13.20;;;7.50;;
41693;SDS011;27377;50.666;9.150;2022-07-23T07:29:49;11.00;;;7.22;;
41693;SDS011;27377;50.666;9.150;2022-07-23T07:32:33;10.30;;;7.03;;
41693;SDS011;27377;50.666;9.150;2022-07-23T07:35:19;10.75;;;7.10;;
41693;SDS011;27377;50.666;9.150;2022-07-23T07:38:04;10.48;;;6.88;;
41693;SDS011;27377;50.666;9.150;2022-07-23T07:40:51;11.53;;;7.80;;
41693;SDS011;27377;50.666;9.150;2022-07-23T07:43:36;10.35;;;6.82;;
41693;SDS011;27377;50.666;9.150;2022-07-23T07:46:21;10.13;;;6.90;;
41693;SDS011;27377;50.666;9.150;2022-07-23T07:49:07;11.57;;;7.38;;
41693;SDS011;27377;50.666;9.150;2022-07-23T07:51:51;10.80;;;6.75;;
41693;SDS011;27377;50.666;9.150;2022-07-23T07:54:35;10.30;;;6.60;;
41693;SDS011;27377;50.666;9.150;2022-07-23T07:57:20;10.15;;;6.75;;
41693;SDS011;27377;50.666;9.150;2022-07-23T08:00:05;9.35;;;6.50;;
41693;SDS011;27377;50.666;9.150;2022-07-23T08:02:52;10.35;;;6.00;;
41693;SDS011;27377;50.666;9.150;2022-07-23T08:05:36;9.82;;;5.90;;
41693;SDS011;27377;50.666;9.150;2022-07-23T08:08:21;8.57;;;5.38;;
41693;SDS011;27377;50.666;9.150;2022-07-23T08:11:05;9.32;;;5.82;;
41693;SDS011;27377;50.666;9.150;2022-07-23T08:13:49;10.48;;;5.40;;
41693;SDS011;27377;50.666;9.150;2022-07-23T08:16:34;8.85;;;5.32;;
41693;SDS011;27377;50.666;9.150;2022-07-23T08:19:18;6.93;;;5.15;;
41693;SDS011;27377;50.666;9.150;2022-07-23T08:22:02;10.00;;;5.00;;
41693;SDS011;27377;50.666;9.150;2022-07-23T08:24:46;8.85;;;4.70;;
41693;SDS011;27377;50.666;9.150;2022-07-23T08:27:30;8.93;;;4.30;;
41693;SDS011;27377;50.666;9.150;2022-07-23T08:30:14;7.35;;;4.40;;
41693;SDS011;27377;50.666;9.150;2022-07-23T08:33:07;6.57;;;4.18;;
41693;SDS011;27377;50.666;9.150;2022-07-23T08:35:56;8.52;;;4.35;;
41693;SDS011;27377;50.666;9.150;2022-07-23T08:38:41;6.07;;;3.75;;
41693;SDS011;27377;50.666;9.150;2022-07-23T08:41:26;8.03;;;3.60;;
41693;SDS011;27377;50.666;9.150;2022-07-23T08:44:10;6.30;;;3.60;;
41693;SDS011;27377;50.666;9.150;2022-07-23T08:46:56;6.53;;;3.70;;
41693;SDS011;27377;50.666;9.150;2022-07-23T08:49:40;6.57;;;3.20;;
41693;SDS011;27377;50.666;9.150;2022-07-23T08:52:25;6.30;;;3.00;;
41693;SDS011;27377;50.666;9.150;2022-07-23T08:55:10;4.20;;;2.35;;
41693;SDS011;27377;50.666;9.150;2022-07-23T08:57:54;4.40;;;2.60;;
41693;SDS011;27377;50.666;9.150;2022-07-23T09:00:38;4.35;;;2.40;;
41693;SDS011;27377;50.666;9.150;2022-07-23T09:03:25;5.28;;;2.40;;
41693;SDS011;27377;50.666;9.150;2022-07-23T09:06:10;5.63;;;2.85;;
41693;SDS011;27377;50.666;9.150;2022-07-23T09:08:54;5.77;;;2.40;;
41693;SDS011;27377;50.666;9.150;2022-07-23T09:11:39;5.28;;;2.50;;
41693;SDS011;27377;50.666;9.150;2022-07-23T09:14:36;3.78;;;2.45;;
41693;SDS011;27377;50.666;9.150;2022-07-23T09:17:27;4.80;;;2.90;;
41693;SDS011;27377;50.666;9.150;2022-07-23T09:20:24;3.83;;;2.28;;
41693;SDS011;27377;50.666;9.150;2022-07-23T09:23:07;4.03;;;2.63;;
41693;SDS011;27377;50.666;9.150;2022-07-23T09:25:52;4.85;;;2.75;;
41693;SDS011;27377;50.666;9.150;2022-07-23T09:28:46;4.68;;;2.50;;
41693;SDS011;27377;50.666;9.150;2022-07-23T09:31:52;3.97;;;2.50;;
41693;SDS011;27377;50.666;9.150;2022-07-23T09:34:41;4.75;;;2.67;;
41693;SDS011;27377;50.666;9.150;2022-07-23T09:37:32;6.32;;;2.65;;
41693;SDS011;27377;50.666;9.150;2022-07-23T09:40:17;5.10;;;2.60;;
41693;SDS011;27377;50.666;9.150;2022-07-23T09:43:01;4.80;;;2.60;;
41693;SDS011;27377;50.666;9.150;2022-07-23T09:45:45;5.10;;;2.90;;
41693;SDS011;27377;50.666;9.150;2022-07-23T09:48:30;5.07;;;2.70;;
41693;SDS011;27377;50.666;9.150;2022-07-23T09:51:15;5.40;;;2.58;;
41693;SDS011;27377;50.666;9.150;2022-07-23T09:54:41;4.17;;;2.67;;
41693;SDS011;27377;50.666;9.150;2022-07-23T09:57:25;4.63;;;2.75;;
41693;SDS011;27377;50.666;9.150;2022-07-23T10:00:10;4.65;;;2.83;;
41693;SDS011;27377;50.666;9.150;2022-07-23T10:02:55;4.13;;;2.80;;
41693;SDS011;27377;50.666;9.150;2022-07-23T10:05:40;4.67;;;2.80;;
41693;SDS011;27377;50.666;9.150;2022-07-23T10:08:27;4.87;;;2.83;;
41693;SDS011;27377;50.666;9.150;2022-07-23T10:11:13;7.07;;;2.95;;
41693;SDS011;27377;50.666;9.150;2022-07-23T10:13:58;5.72;;;2.88;;
41693;SDS011;27377;50.666;9.150;2022-07-23T10:16:44;6.00;;;2.90;;
41693;SDS011;27377;50.666;9.150;2022-07-23T10:19:29;5.13;;;3.05;;
41693;SDS011;27377;50.666;9.150;2022-07-23T10:22:15;6.82;;;3.10;;
41693;SDS011;27377;50.666;9.150;2022-07-23T10:25:23;5.30;;;3.10;;
41693;SDS011;27377;50.666;9.150;2022-07-23T10:37:35;5.95;;;3.67;;
41693;SDS011;27377;50.666;9.150;2022-07-23T10:40:22;6.25;;;3.33;;
41693;SDS011;27377;50.666;9.150;2022-07-23T10:43:13;6.60;;;3.50;;
41693;SDS011;27377;50.666;9.150;2022-07-23T10:46:34;5.50;;;3.40;;
41693;SDS011;27377;50.666;9.150;2022-07-23T10:49:24;6.20;;;3.20;;
41693;SDS011;27377;50.666;9.150;2022-07-23T10:57:54;6.47;;;3.55;;
41693;SDS011;27377;50.666;9.150;2022-07-23T11:00:38;5.50;;;3.80;;
41693;SDS011;27377;50.666;9.150;2022-07-23T11:03:27;5.55;;;3.70;;
41693;SDS011;27377;50.666;9.150;2022-07-23T11:06:15;7.35;;;4.40;;
41693;SDS011;27377;50.666;9.150;2022-07-23T11:15:08;6.20;;;4.20;;
41693;SDS011;27377;50.666;9.150;2022-07-23T11:18:00;9.07;;;4.43;;
41693;SDS011;27377;50.666;9.150;2022-07-23T11:20:44;7.80;;;4.40;;
41693;SDS011;27377;50.666;9.150;2022-07-23T11:26:44;7.35;;;4.30;;
41693;SDS011;27377;50.666;9.150;2022-07-23T11:35:19;8.68;;;4.50;;
41693;SDS011;27377;50.666;9.150;2022-07-23T11:38:19;7.25;;;4.30;;
41693;SDS011;27377;50.666;9.150;2022-07-23T11:41:04;7.50;;;4.38;;
41693;SDS011;27377;50.666;9.150;2022-07-23T11:43:51;8.35;;;4.40;;
41693;SDS011;27377;50.666;9.150;2022-07-23T11:46:35;6.88;;;4.47;;
41693;SDS011;27377;50.666;9.150;2022-07-23T11:49:19;7.63;;;4.33;;
41693;SDS011;27377;50.666;9.150;2022-07-23T11:52:03;5.82;;;4.10;;
41693;SDS011;27377;50.666;9.150;2022-07-23T11:57:40;5.80;;;4.22;;
41693;SDS011;27377;50.666;9.150;2022-07-23T12:00:25;6.03;;;4.05;;
41693;SDS011;27377;50.666;9.150;2022-07-23T12:03:11;7.32;;;4.18;;
41693;SDS011;27377;50.666;9.150;2022-07-23T12:05:56;7.10;;;3.95;;
41693;SDS011;27377;50.666;9.150;2022-07-23T12:08:41;6.15;;;4.22;;
41693;SDS011;27377;50.666;9.150;2022-07-23T12:11:26;6.22;;;3.95;;
41693;SDS011;27377;50.666;9.150;2022-07-23T12:14:10;6.05;;;4.10;;
41693;SDS011;27377;50.666;9.150;2022-07-23T12:17:06;5.70;;;4.22;;
41693;SDS011;27377;50.666;9.150;2022-07-23T12:19:54;6.97;;;4.03;;
41693;SDS011;27377;50.666;9.150;2022-07-23T12:22:44;6.60;;;4.10;;
41693;SDS011;27377;50.666;9.150;2022-07-23T12:25:32;5.93;;;3.93;;
41693;SDS011;27377;50.666;9.150;2022-07-23T12:28:19;6.18;;;4.00;;
41693;SDS011;27377;50.666;9.150;2022-07-23T12:31:13;6.90;;;4.35;;
41693;SDS011;27377;50.666;9.150;2022-07-23T12:33:57;5.78;;;3.97;;
41693;SDS011;27377;50.666;9.150;2022-07-23T12:36:42;6.72;;;4.22;;
41693;SDS011;27377;50.666;9.150;2022-07-23T12:39:31;6.53;;;3.97;;
41693;SDS011;27377;50.666;9.150;2022-07-23T12:42:18;7.25;;;4.20;;
41693;SDS011;27377;50.666;9.150;2022-07-23T12:45:04;5.63;;;3.90;;
41693;SDS011;27377;50.666;9.150;2022-07-23T12:47:59;5.70;;;3.85;;
41693;SDS011;27377;50.666;9.150;2022-07-23T12:50:51;6.88;;;4.25;;
41693;SDS011;27377;50.666;9.150;2022-07-23T12:56:28;5.90;;;4.00;;
41693;SDS011;27377;50.666;9.150;2022-07-23T12:59:14;6.73;;;4.10;;
41693;SDS011;27377;50.666;9.150;2022-07-23T13:02:00;5.75;;;4.10;;
41693;SDS011;27377;50.666;9.150;2022-07-23T13:04:44;5.95;;;4.00;;
41693;SDS011;27377;50.666;9.150;2022-07-23T13:07:29;6.05;;;3.90;;
41693;SDS011;27377;50.666;9.150;2022-07-23T13:10:13;6.50;;;4.07;;
41693;SDS011;27377;50.666;9.150;2022-07-23T13:12:57;7.22;;;4.10;;
41693;SDS011;27377;50.666;9.150;2022-07-23T13:15:42;6.68;;;4.00;;
41693;SDS011;27377;50.666;9.150;2022-07-23T13:18:27;6.45;;;3.83;;
41693;SDS011;27377;50.666;9.150;2022-07-23T13:21:12;6.13;;;4.07;;
41693;SDS011;27377;50.666;9.150;2022-07-23T13:23:56;5.85;;;3.90;;
41693;SDS011;27377;50.666;9.150;2022-07-23T13:26:40;5.60;;;3.97;;
41693;SDS011;27377;50.666;9.150;2022-07-23T13:29:25;7.30;;;4.17;;
41693;SDS011;27377;50.666;9.150;2022-07-23T13:32:12;5.05;;;3.80;;
41693;SDS011;27377;50.666;9.150;2022-07-23T13:34:57;6.60;;;3.95;;
41693;SDS011;27377;50.666;9.150;2022-07-23T13:37:41;5.70;;;3.95;;
41693;SDS011;27377;50.666;9.150;2022-07-23T13:40:26;6.73;;;4.00;;
41693;SDS011;27377;50.666;9.150;2022-07-23T13:43:15;6.28;;;3.80;;
41693;SDS011;27377;50.666;9.150;2022-07-23T13:46:01;6.25;;;3.70;;
41693;SDS011;27377;50.666;9.150;2022-07-23T13:48:45;6.63;;;3.90;;
41693;SDS011;27377;50.666;9.150;2022-07-23T13:51:29;5.70;;;3.85;;
41693;SDS011;27377;50.666;9.150;2022-07-23T13:54:14;5.85;;;3.88;;
41693;SDS011;27377;50.666;9.150;2022-07-23T13:56:58;5.68;;;3.70;;
41693;SDS011;27377;50.666;9.150;2022-07-23T13:59:42;6.20;;;3.90;;
41693;SDS011;27377;50.666;9.150;2022-07-23T14:02:26;6.07;;;3.97;;
41693;SDS011;27377;50.666;9.150;2022-07-23T14:05:10;5.23;;;3.97;;
41693;SDS011;27377;50.666;9.150;2022-07-23T14:07:54;6.18;;;3.90;;
41693;SDS011;27377;50.666;9.150;2022-07-23T14:10:39;6.35;;;4.10;;
41693;SDS011;27377;50.666;9.150;2022-07-23T14:13:23;5.85;;;3.72;;
41693;SDS011;27377;50.666;9.150;2022-07-23T14:16:07;5.45;;;3.90;;
41693;SDS011;27377;50.666;9.150;2022-07-23T14:18:51;6.43;;;4.00;;
41693;SDS011;27377;50.666;9.150;2022-07-23T14:21:37;5.70;;;3.88;;
41693;SDS011;27377;50.666;9.150;2022-07-23T14:24:21;5.45;;;3.80;;
41693;SDS011;27377;50.666;9.150;2022-07-23T14:27:05;7.30;;;3.90;;
41693;SDS011;27377;50.666;9.150;2022-07-23T14:29:49;6.40;;;3.83;;
41693;SDS011;27377;50.666;9.150;2022-07-23T14:32:33;5.57;;;4.00;;
41693;SDS011;27377;50.666;9.150;2022-07-23T14:35:18;6.45;;;3.80;;
41693;SDS011;27377;50.666;9.150;2022-07-23T14:38:03;6.20;;;3.53;;
41693;SDS011;27377;50.666;9.150;2022-07-23T14:40:47;6.53;;;3.65;;
41693;SDS011;27377;50.666;9.150;2022-07-23T14:43:31;4.73;;;3.30;;
41693;SDS011;27377;50.666;9.150;2022-07-23T14:46:15;5.75;;;3.60;;
41693;SDS011;27377;50.666;9.150;2022-07-23T14:48:59;7.50;;;3.60;;
41693;SDS011;27377;50.666;9.150;2022-07-23T14:51:43;6.13;;;3.92;;
41693;SDS011;27377;50.666;9.150;2022-07-23T14:54:28;4.45;;;3.53;;
41693;SDS011;27377;50.666;9.150;2022-07-23T14:57:12;5.60;;;3.50;;
41693;SDS011;27377;50.666;9.150;2022-07-23T14:59:56;5.05;;;3.33;;
41693;SDS011;27377;50.666;9.150;2022-07-23T15:02:40;5.40;;;3.70;;
41693;SDS011;27377;50.666;9.150;2022-07-23T15:05:25;4.82;;;3.20;;
41693;SDS011;27377;50.666;9.150;2022-07-23T15:08:09;5.45;;;3.58;;
41693;SDS011;27377;50.666;9.150;2022-07-23T15:10:53;4.97;;;3.22;;
41693;SDS011;27377;50.666;9.150;2022-07-23T15:13:37;6.17;;;3.60;;
41693;SDS011;27377;50.666;9.150;2022-07-23T15:16:22;5.00;;;3.50;;
41693;SDS011;27377;50.666;9.150;2022-07-23T15:19:06;5.50;;;3.40;;
41693;SDS011;27377;50.666;9.150;2022-07-23T15:21:50;6.07;;;3.27;;
41693;SDS011;27377;50.666;9.150;2022-07-23T15:24:34;6.00;;;3.40;;
41693;SDS011;27377;50.666;9.150;2022-07-23T15:27:18;5.30;;;3.30;;
41693;SDS011;27377;50.666;9.150;2022-07-23T15:30:03;5.95;;;3.47;;
41693;SDS011;27377;50.666;9.150;2022-07-23T15:32:47;4.80;;;3.30;;
41693;SDS011;27377;50.666;9.150;2022-07-23T15:35:31;4.90;;;3.40;;
41693;SDS011;27377;50.666;9.150;2022-07-23T15:38:16;4.07;;;2.97;;
41693;SDS011;27377;50.666;9.150;2022-07-23T15:41:00;5.65;;;3.10;;
41693;SDS011;27377;50.666;9.150;2022-07-23T15:43:43;5.20;;;3.10;;
41693;SDS011;27377;50.666;9.150;2022-07-23T15:46:27;4.28;;;3.00;;
41693;SDS011;27377;50.666;9.150;2022-07-23T15:49:13;4.65;;;3.10;;
41693;SDS011;27377;50.666;9.150;2022-07-23T15:51:57;5.10;;;3.10;;
41693;SDS011;27377;50.666;9.150;2022-07-23T15:54:41;5.57;;;3.15;;
41693;SDS011;27377;50.666;9.150;2022-07-23T15:57:26;4.05;;;3.10;;
41693;SDS011;27377;50.666;9.150;2022-07-23T16:00:10;5.90;;;3.23;;
41693;SDS011;27377;50.666;9.150;2022-07-23T16:02:54;5.47;;;3.38;;
41693;SDS011;27377;50.666;9.150;2022-07-23T16:05:39;6.88;;;2.83;;
41693;SDS011;27377;50.666;9.150;2022-07-23T16:08:24;6.70;;;3.55;;
41693;SDS011;27377;50.666;9.150;2022-07-23T16:11:08;5.50;;;3.33;;
41693;SDS011;27377;50.666;9.150;2022-07-23T16:13:52;4.20;;;3.00;;
41693;SDS011;27377;50.666;9.150;2022-07-23T16:16:36;4.93;;;2.90;;
41693;SDS011;27377;50.666;9.150;2022-07-23T16:19:20;4.93;;;3.08;;
41693;SDS011;27377;50.666;9.150;2022-07-23T16:22:04;5.95;;;2.90;;
41693;SDS011;27377;50.666;9.150;2022-07-23T16:24:48;6.95;;;3.25;;
41693;SDS011;27377;50.666;9.150;2022-07-23T16:27:33;7.60;;;3.08;;
41693;SDS011;27377;50.666;9.150;2022-07-23T16:30:19;5.05;;;3.00;;
41693;SDS011;27377;50.666;9.150;2022-07-23T16:33:03;5.22;;;3.17;;
41693;SDS011;27377;50.666;9.150;2022-07-23T16:35:47;4.72;;;2.92;;
41693;SDS011;27377;50.666;9.150;2022-07-23T16:38:35;5.43;;;2.95;;
41693;SDS011;27377;50.666;9.150;2022-07-23T16:41:20;5.10;;;3.00;;
41693;SDS011;27377;50.666;9.150;2022-07-23T16:44:05;3.88;;;2.72;;
41693;SDS011;27377;50.666;9.150;2022-07-23T16:46:49;7.22;;;2.70;;
41693;SDS011;27377;50.666;9.150;2022-07-23T16:49:33;4.30;;;2.72;;
41693;SDS011;27377;50.666;9.150;2022-07-23T16:52:18;4.88;;;2.63;;
41693;SDS011;27377;50.666;9.150;2022-07-23T16:55:03;4.45;;;2.50;;
41693;SDS011;27377;50.666;9.150;2022-07-23T16:57:48;5.20;;;2.60;;
41693;SDS011;27377;50.666;9.150;2022-07-23T17:00:32;4.07;;;2.70;;
41693;SDS011;27377;50.666;9.150;2022-07-23T17:03:16;4.50;;;2.70;;